Hines, Oregon
Current Conditions -  °F | °C
As of 11:53 AM on Wednesday 17 Dec 2014 (Local Time) from KBNO Reporting Station
Overcast Overcast  
Wind Chill: 30°   Ceiling: 4900
Heat Index: 36°   Visibility: 10mi
Dew Point: 31°   Wind: 8mph
Humidity: 82%   Direction: 60°ENE
Pressure: 29.9"   Gusts: NA
Location:  43.56°N, 119.08°W
Report Text: KBNO 171953Z AUTO 06007KT 10SM BKN049 OVC060 02/M01 A2990 RMK AO2 SLP145 T00221006
Loading
Personal Weather Stations






























Interactive Weather Map New forecast layout! Learn more

10-Day Weather Forecast

Advertisements
Track Severe Weather on mobile